sensor_id;sensor_type;location;lat;lon;timestamp;pressure;altitude;pressure_sealevel;temperature;humidity
61906;BME280;47863;55.766;37.672;2022-07-29T00:02:08;99909.16;;;19.33;65.74
61906;BME280;47863;55.766;37.672;2022-07-29T00:04:34;99902.47;;;19.29;65.08
61906;BME280;47863;55.766;37.672;2022-07-29T00:07:00;99898.97;;;19.15;66.31
61906;BME280;47863;55.766;37.672;2022-07-29T00:09:26;99895.72;;;18.93;66.07
61906;BME280;47863;55.766;37.672;2022-07-29T00:11:51;99907.44;;;18.87;66.75
61906;BME280;47863;55.766;37.672;2022-07-29T00:14:17;99901.38;;;18.71;66.40
61906;BME280;47863;55.766;37.672;2022-07-29T00:16:43;99912.03;;;18.66;67.32
61906;BME280;47863;55.766;37.672;2022-07-29T00:19:08;99915.81;;;18.58;67.71
61906;BME280;47863;55.766;37.672;2022-07-29T00:21:34;99909.75;;;18.43;67.99
61906;BME280;47863;55.766;37.672;2022-07-29T00:23:59;99897.25;;;18.29;67.88
61906;BME280;47863;55.766;37.672;2022-07-29T00:26:25;99915.19;;;18.23;68.66
61906;BME280;47863;55.766;37.672;2022-07-29T00:28:52;99920.00;;;18.21;68.54
61906;BME280;47863;55.766;37.672;2022-07-29T00:31:18;99930.38;;;18.11;68.40
61906;BME280;47863;55.766;37.672;2022-07-29T00:33:44;99926.63;;;17.98;69.53
61906;BME280;47863;55.766;37.672;2022-07-29T00:36:09;99921.84;;;17.94;68.63
61906;BME280;47863;55.766;37.672;2022-07-29T00:38:35;99892.38;;;17.71;69.57
61906;BME280;47863;55.766;37.672;2022-07-29T00:41:00;99921.19;;;17.85;70.09
61906;BME280;47863;55.766;37.672;2022-07-29T00:43:26;99924.06;;;17.77;70.54
61906;BME280;47863;55.766;37.672;2022-07-29T00:45:52;99923.00;;;17.71;70.20
61906;BME280;47863;55.766;37.672;2022-07-29T00:48:18;99921.72;;;17.67;70.38
61906;BME280;47863;55.766;37.672;2022-07-29T00:50:43;99931.09;;;17.64;71.22
61906;BME280;47863;55.766;37.672;2022-07-29T00:53:11;99934.63;;;17.58;70.25
61906;BME280;47863;55.766;37.672;2022-07-29T00:55:37;99919.16;;;17.45;70.68
61906;BME280;47863;55.766;37.672;2022-07-29T00:58:03;99939.81;;;17.47;70.76
61906;BME280;47863;55.766;37.672;2022-07-29T01:00:29;99935.81;;;17.42;70.84
61906;BME280;47863;55.766;37.672;2022-07-29T01:02:54;99936.44;;;17.38;70.54
61906;BME280;47863;55.766;37.672;2022-07-29T01:05:21;99946.00;;;17.34;70.74
61906;BME280;47863;55.766;37.672;2022-07-29T01:07:51;99945.13;;;17.27;70.96
61906;BME280;47863;55.766;37.672;2022-07-29T01:10:19;99937.81;;;17.20;71.52
61906;BME280;47863;55.766;37.672;2022-07-29T01:12:48;99944.25;;;17.19;70.71
61906;BME280;47863;55.766;37.672;2022-07-29T01:15:14;99942.34;;;17.13;70.37
61906;BME280;47863;55.766;37.672;2022-07-29T01:17:50;99942.97;;;17.09;70.65
61906;BME280;47863;55.766;37.672;2022-07-29T01:20:29;99943.97;;;17.08;70.51
61906;BME280;47863;55.766;37.672;2022-07-29T01:30:38;99941.63;;;16.98;71.23
61906;BME280;47863;55.766;37.672;2022-07-29T01:33:07;99955.38;;;16.96;70.07
61906;BME280;47863;55.766;37.672;2022-07-29T01:35:38;99945.19;;;16.98;70.33
61906;BME280;47863;55.766;37.672;2022-07-29T01:38:20;99954.53;;;16.96;70.32
61906;BME280;47863;55.766;37.672;2022-07-29T01:40:49;99951.00;;;16.95;71.41
61906;BME280;47863;55.766;37.672;2022-07-29T01:43:19;99949.97;;;16.96;71.95
61906;BME280;47863;55.766;37.672;2022-07-29T01:45:53;99950.16;;;16.95;70.22
61906;BME280;47863;55.766;37.672;2022-07-29T01:51:13;99957.00;;;16.91;70.54
61906;BME280;47863;55.766;37.672;2022-07-29T01:53:47;99954.88;;;16.86;70.51
61906;BME280;47863;55.766;37.672;2022-07-29T01:56:18;99948.25;;;16.89;71.66
61906;BME280;47863;55.766;37.672;2022-07-29T01:58:45;99943.44;;;16.84;70.94
61906;BME280;47863;55.766;37.672;2022-07-29T02:01:13;99942.00;;;16.88;71.56
61906;BME280;47863;55.766;37.672;2022-07-29T02:03:43;99954.31;;;16.91;70.72
61906;BME280;47863;55.766;37.672;2022-07-29T02:06:10;99948.03;;;16.90;70.61
61906;BME280;47863;55.766;37.672;2022-07-29T02:08:36;99950.56;;;16.92;70.83
61906;BME280;47863;55.766;37.672;2022-07-29T02:11:05;99950.38;;;16.93;70.86
61906;BME280;47863;55.766;37.672;2022-07-29T02:13:34;99932.81;;;16.82;71.43
61906;BME280;47863;55.766;37.672;2022-07-29T02:16:02;99959.31;;;16.94;70.87
61906;BME280;47863;55.766;37.672;2022-07-29T02:18:31;99951.38;;;16.92;71.04
61906;BME280;47863;55.766;37.672;2022-07-29T02:20:59;99964.16;;;16.98;70.86
61906;BME280;47863;55.766;37.672;2022-07-29T02:23:26;99961.00;;;16.95;70.42
61906;BME280;47863;55.766;37.672;2022-07-29T02:25:55;99968.66;;;16.91;70.54
61906;BME280;47863;55.766;37.672;2022-07-29T02:28:26;99961.56;;;16.90;70.13
61906;BME280;47863;55.766;37.672;2022-07-29T02:30:55;99968.84;;;16.90;71.56
61906;BME280;47863;55.766;37.672;2022-07-29T02:33:23;99957.19;;;16.82;71.47
61906;BME280;47863;55.766;37.672;2022-07-29T02:35:51;99970.94;;;16.88;71.66
61906;BME280;47863;55.766;37.672;2022-07-29T02:38:18;99972.81;;;16.87;71.76
61906;BME280;47863;55.766;37.672;2022-07-29T02:41:09;99975.72;;;16.92;72.29
61906;BME280;47863;55.766;37.672;2022-07-29T02:43:37;99970.31;;;16.92;70.93
61906;BME280;47863;55.766;37.672;2022-07-29T02:46:05;99971.22;;;16.99;71.28
61906;BME280;47863;55.766;37.672;2022-07-29T02:48:39;99968.50;;;16.99;71.26
61906;BME280;47863;55.766;37.672;2022-07-29T02:51:32;99962.94;;;17.08;69.72
61906;BME280;47863;55.766;37.672;2022-07-29T02:54:01;99954.34;;;16.97;70.19
61906;BME280;47863;55.766;37.672;2022-07-29T02:56:31;99963.78;;;17.08;68.54
61906;BME280;47863;55.766;37.672;2022-07-29T02:59:04;99967.91;;;17.04;70.40
61906;BME280;47863;55.766;37.672;2022-07-29T03:01:32;99966.41;;;16.95;70.64
61906;BME280;47863;55.766;37.672;2022-07-29T03:04:01;99970.38;;;16.99;70.67
61906;BME280;47863;55.766;37.672;2022-07-29T03:06:28;99962.66;;;16.96;71.71
61906;BME280;47863;55.766;37.672;2022-07-29T03:08:56;99964.53;;;16.95;70.99
61906;BME280;47863;55.766;37.672;2022-07-29T03:11:23;99956.78;;;16.92;70.31
61906;BME280;47863;55.766;37.672;2022-07-29T03:13:50;99976.25;;;17.02;70.27
61906;BME280;47863;55.766;37.672;2022-07-29T03:16:15;99956.84;;;16.99;70.68
61906;BME280;47863;55.766;37.672;2022-07-29T03:18:41;99957.94;;;17.04;70.40
61906;BME280;47863;55.766;37.672;2022-07-29T03:21:07;99958.75;;;17.05;69.91
61906;BME280;47863;55.766;37.672;2022-07-29T03:23:33;99969.41;;;17.13;71.37
61906;BME280;47863;55.766;37.672;2022-07-29T03:25:59;99961.91;;;17.09;70.51
61906;BME280;47863;55.766;37.672;2022-07-29T03:28:24;99966.72;;;17.13;70.92
61906;BME280;47863;55.766;37.672;2022-07-29T03:30:53;99975.09;;;17.18;71.08
61906;BME280;47863;55.766;37.672;2022-07-29T03:33:18;99964.03;;;17.20;70.12
61906;BME280;47863;55.766;37.672;2022-07-29T03:35:44;99976.16;;;17.24;70.91
61906;BME280;47863;55.766;37.672;2022-07-29T03:38:10;99973.22;;;17.25;69.70
61906;BME280;47863;55.766;37.672;2022-07-29T03:40:44;99980.53;;;17.32;70.07
61906;BME280;47863;55.766;37.672;2022-07-29T03:43:12;99955.78;;;17.28;69.25
61906;BME280;47863;55.766;37.672;2022-07-29T03:45:43;99970.19;;;17.42;70.14
61906;BME280;47863;55.766;37.672;2022-07-29T03:48:12;99965.19;;;17.39;69.55
61906;BME280;47863;55.766;37.672;2022-07-29T03:50:39;99960.03;;;17.51;70.87
61906;BME280;47863;55.766;37.672;2022-07-29T03:53:05;99968.16;;;17.57;69.11
61906;BME280;47863;55.766;37.672;2022-07-29T03:55:40;99973.25;;;17.74;69.65
61906;BME280;47863;55.766;37.672;2022-07-29T03:58:06;99968.66;;;17.74;68.45
61906;BME280;47863;55.766;37.672;2022-07-29T04:00:34;99973.31;;;17.87;68.30
61906;BME280;47863;55.766;37.672;2022-07-29T04:03:01;99973.31;;;17.94;68.20
61906;BME280;47863;55.766;37.672;2022-07-29T04:05:26;99979.19;;;18.04;68.29
61906;BME280;47863;55.766;37.672;2022-07-29T04:07:52;99976.47;;;18.11;68.20
61906;BME280;47863;55.766;37.672;2022-07-29T04:10:18;99979.22;;;18.17;66.93
61906;BME280;47863;55.766;37.672;2022-07-29T04:12:44;99983.59;;;18.25;66.35
61906;BME280;47863;55.766;37.672;2022-07-29T04:15:10;99977.97;;;18.33;66.73
61906;BME280;47863;55.766;37.672;2022-07-29T04:17:36;99977.16;;;18.39;66.16
61906;BME280;47863;55.766;37.672;2022-07-29T04:20:02;99989.88;;;18.46;65.51
61906;BME280;47863;55.766;37.672;2022-07-29T04:22:29;99956.06;;;18.41;65.39
61906;BME280;47863;55.766;37.672;2022-07-29T04:24:55;99982.38;;;18.61;65.44
61906;BME280;47863;55.766;37.672;2022-07-29T04:27:20;99971.72;;;18.66;65.57
61906;BME280;47863;55.766;37.672;2022-07-29T04:29:46;99983.00;;;18.76;64.74
61906;BME280;47863;55.766;37.672;2022-07-29T04:32:11;99976.75;;;18.82;64.74
61906;BME280;47863;55.766;37.672;2022-07-29T04:34:37;99991.97;;;18.97;65.19
61906;BME280;47863;55.766;37.672;2022-07-29T04:37:02;99986.75;;;19.02;64.21
61906;BME280;47863;55.766;37.672;2022-07-29T04:39:28;99985.06;;;19.08;62.67
61906;BME280;47863;55.766;37.672;2022-07-29T04:41:54;99985.66;;;19.16;63.32
61906;BME280;47863;55.766;37.672;2022-07-29T04:44:19;99996.09;;;19.26;63.69
61906;BME280;47863;55.766;37.672;2022-07-29T04:46:45;99990.00;;;19.31;62.24
61906;BME280;47863;55.766;37.672;2022-07-29T04:49:10;99997.91;;;19.39;62.07
61906;BME280;47863;55.766;37.672;2022-07-29T04:51:36;99995.81;;;19.48;61.83
61906;BME280;47863;55.766;37.672;2022-07-29T04:54:01;99993.66;;;19.63;61.55
61906;BME280;47863;55.766;37.672;2022-07-29T04:56:27;99998.22;;;19.76;59.95
61906;BME280;47863;55.766;37.672;2022-07-29T04:58:53;99995.03;;;19.86;61.41
61906;BME280;47863;55.766;37.672;2022-07-29T05:01:19;99995.44;;;19.89;60.74
61906;BME280;47863;55.766;37.672;2022-07-29T05:03:45;99998.13;;;19.96;59.72
61906;BME280;47863;55.766;37.672;2022-07-29T05:06:10;99992.88;;;20.01;60.54
61906;BME280;47863;55.766;37.672;2022-07-29T05:08:37;99992.44;;;20.04;59.11
61906;BME280;47863;55.766;37.672;2022-07-29T05:11:02;99986.56;;;20.07;58.88
61906;BME280;47863;55.766;37.672;2022-07-29T05:13:29;100003.03;;;20.19;58.59
61906;BME280;47863;55.766;37.672;2022-07-29T05:15:54;99992.09;;;20.26;59.26
61906;BME280;47863;55.766;37.672;2022-07-29T05:18:20;99995.94;;;20.43;58.90
61906;BME280;47863;55.766;37.672;2022-07-29T05:20:46;99998.78;;;20.55;57.58
61906;BME280;47863;55.766;37.672;2022-07-29T05:23:12;100008.09;;;20.72;57.35
61906;BME280;47863;55.766;37.672;2022-07-29T05:25:40;99997.53;;;20.83;57.42
61906;BME280;47863;55.766;37.672;2022-07-29T05:28:06;100006.38;;;21.03;56.84
61906;BME280;47863;55.766;37.672;2022-07-29T05:30:32;99984.56;;;21.03;56.23
61906;BME280;47863;55.766;37.672;2022-07-29T05:32:57;100008.50;;;21.38;56.26
61906;BME280;47863;55.766;37.672;2022-07-29T05:35:23;100002.16;;;21.63;56.02
61906;BME280;47863;55.766;37.672;2022-07-29T05:37:48;100004.97;;;21.74;55.09
61906;BME280;47863;55.766;37.672;2022-07-29T05:40:14;99993.72;;;21.83;54.19
61906;BME280;47863;55.766;37.672;2022-07-29T05:42:39;99999.94;;;21.71;55.99
61906;BME280;47863;55.766;37.672;2022-07-29T05:45:06;99993.53;;;21.66;56.85
61906;BME280;47863;55.766;37.672;2022-07-29T05:47:31;99996.72;;;21.63;56.76
61906;BME280;47863;55.766;37.672;2022-07-29T05:49:57;99997.38;;;21.58;55.14
61906;BME280;47863;55.766;37.672;2022-07-29T05:52:23;99995.13;;;21.55;55.47
61906;BME280;47863;55.766;37.672;2022-07-29T05:54:48;99992.03;;;21.51;56.78
61906;BME280;47863;55.766;37.672;2022-07-29T05:57:18;100001.69;;;21.66;56.13
61906;BME280;47863;55.766;37.672;2022-07-29T05:59:44;100004.41;;;21.66;55.75
61906;BME280;47863;55.766;37.672;2022-07-29T06:02:10;99996.63;;;21.69;60.77
61906;BME280;47863;55.766;37.672;2022-07-29T06:04:36;100003.56;;;21.84;56.57
61906;BME280;47863;55.766;37.672;2022-07-29T06:07:02;99978.78;;;21.85;54.47
61906;BME280;47863;55.766;37.672;2022-07-29T06:09:28;99999.19;;;22.13;54.85
61906;BME280;47863;55.766;37.672;2022-07-29T06:11:54;99992.78;;;22.37;53.20
61906;BME280;47863;55.766;37.672;2022-07-29T06:14:19;100003.97;;;22.71;52.69
61906;BME280;47863;55.766;37.672;2022-07-29T06:16:45;99996.16;;;23.10;50.41
61906;BME280;47863;55.766;37.672;2022-07-29T06:19:11;99986.63;;;23.48;49.98
61906;BME280;47863;55.766;37.672;2022-07-29T06:21:41;99997.00;;;23.75;51.09
61906;BME280;47863;55.766;37.672;2022-07-29T06:24:07;99970.97;;;23.72;48.51
61906;BME280;47863;55.766;37.672;2022-07-29T06:26:32;99993.53;;;23.91;46.21
61906;BME280;47863;55.766;37.672;2022-07-29T06:28:58;99987.66;;;24.00;48.56
61906;BME280;47863;55.766;37.672;2022-07-29T06:31:24;99970.38;;;23.82;46.23
61906;BME280;47863;55.766;37.672;2022-07-29T06:33:49;99996.75;;;23.88;50.36
61906;BME280;47863;55.766;37.672;2022-07-29T06:36:15;99982.63;;;23.80;49.23
61906;BME280;47863;55.766;37.672;2022-07-29T06:38:41;99984.53;;;23.79;47.83
61906;BME280;47863;55.766;37.672;2022-07-29T06:41:08;99989.47;;;23.94;46.39
61906;BME280;47863;55.766;37.672;2022-07-29T06:43:40;99992.63;;;24.03;47.09
61906;BME280;47863;55.766;37.672;2022-07-29T06:46:09;99982.53;;;24.03;45.13
61906;BME280;47863;55.766;37.672;2022-07-29T06:48:35;99983.44;;;24.09;45.17
61906;BME280;47863;55.766;37.672;2022-07-29T06:51:02;99982.78;;;24.02;45.37
61906;BME280;47863;55.766;37.672;2022-07-29T06:53:29;99985.00;;;24.05;47.36
61906;BME280;47863;55.766;37.672;2022-07-29T06:55:56;99995.94;;;24.05;44.72
61906;BME280;47863;55.766;37.672;2022-07-29T06:58:23;99977.25;;;24.13;45.03
61906;BME280;47863;55.766;37.672;2022-07-29T07:00:49;99989.38;;;24.34;45.43
61906;BME280;47863;55.766;37.672;2022-07-29T07:03:15;99981.63;;;24.60;42.47
61906;BME280;47863;55.766;37.672;2022-07-29T07:05:41;99985.50;;;24.98;42.44
61906;BME280;47863;55.766;37.672;2022-07-29T07:08:07;99989.78;;;25.28;41.92
61906;BME280;47863;55.766;37.672;2022-07-29T07:10:33;99976.13;;;25.55;41.31
61906;BME280;47863;55.766;37.672;2022-07-29T07:12:59;99969.56;;;25.78;41.72
61906;BME280;47863;55.766;37.672;2022-07-29T07:15:26;99992.00;;;26.24;43.70
61906;BME280;47863;55.766;37.672;2022-07-29T07:17:52;99989.09;;;26.63;39.79
61906;BME280;47863;55.766;37.672;2022-07-29T07:20:18;99996.63;;;27.21;38.88
61906;BME280;47863;55.766;37.672;2022-07-29T07:22:44;99994.31;;;28.28;35.98
61906;BME280;47863;55.766;37.672;2022-07-29T07:25:10;100003.91;;;29.34;33.90
61906;BME280;47863;55.766;37.672;2022-07-29T07:27:36;100008.38;;;30.74;32.72
61906;BME280;47863;55.766;37.672;2022-07-29T07:30:04;99998.84;;;32.44;28.83
61906;BME280;47863;55.766;37.672;2022-07-29T07:32:34;100004.53;;;32.71;27.85
61906;BME280;47863;55.766;37.672;2022-07-29T07:34:59;99997.31;;;32.18;30.95
61906;BME280;47863;55.766;37.672;2022-07-29T07:37:25;99992.22;;;31.15;30.74
61906;BME280;47863;55.766;37.672;2022-07-29T07:39:52;100007.34;;;30.99;30.42
61906;BME280;47863;55.766;37.672;2022-07-29T07:42:18;100004.88;;;32.13;29.70
61906;BME280;47863;55.766;37.672;2022-07-29T07:44:44;99999.78;;;33.88;26.27
61906;BME280;47863;55.766;37.672;2022-07-29T07:47:12;99997.22;;;35.67;24.66
61906;BME280;47863;55.766;37.672;2022-07-29T07:49:38;100005.00;;;36.22;23.62
61906;BME280;47863;55.766;37.672;2022-07-29T07:52:04;100005.59;;;36.80;22.56
61906;BME280;47863;55.766;37.672;2022-07-29T07:54:29;100003.72;;;37.79;22.05
61906;BME280;47863;55.766;37.672;2022-07-29T07:56:56;100006.16;;;39.10;21.00
61906;BME280;47863;55.766;37.672;2022-07-29T07:59:22;100012.03;;;39.42;19.63
61906;BME280;47863;55.766;37.672;2022-07-29T08:01:47;100002.84;;;38.96;18.84
61906;BME280;47863;55.766;37.672;2022-07-29T08:04:13;100021.03;;;37.72;20.67
61906;BME280;47863;55.766;37.672;2022-07-29T08:06:38;100015.44;;;37.34;20.07
61906;BME280;47863;55.766;37.672;2022-07-29T08:09:04;100012.84;;;36.72;20.84
61906;BME280;47863;55.766;37.672;2022-07-29T08:11:31;100012.63;;;35.82;20.55
61906;BME280;47863;55.766;37.672;2022-07-29T08:13:56;100011.84;;;36.51;20.52
61906;BME280;47863;55.766;37.672;2022-07-29T08:16:22;100014.47;;;36.74;20.71
61906;BME280;47863;55.766;37.672;2022-07-29T08:18:50;100005.25;;;35.86;20.40
61906;BME280;47863;55.766;37.672;2022-07-29T08:21:16;100010.22;;;34.64;22.73
61906;BME280;47863;55.766;37.672;2022-07-29T08:23:46;100008.06;;;33.51;24.51
61906;BME280;47863;55.766;37.672;2022-07-29T08:26:14;99992.94;;;33.16;24.94
61906;BME280;47863;55.766;37.672;2022-07-29T08:28:42;100009.03;;;33.00;23.05
61906;BME280;47863;55.766;37.672;2022-07-29T08:31:12;100007.84;;;31.97;25.84
61906;BME280;47863;55.766;37.672;2022-07-29T08:33:38;100010.00;;;31.09;26.70
61906;BME280;47863;55.766;37.672;2022-07-29T08:36:04;100009.19;;;31.57;27.72
61906;BME280;47863;55.766;37.672;2022-07-29T08:38:30;100000.53;;;33.38;24.11
61906;BME280;47863;55.766;37.672;2022-07-29T08:40:56;100001.22;;;35.43;22.26
61906;BME280;47863;55.766;37.672;2022-07-29T08:43:22;99994.44;;;37.27;19.45
61906;BME280;47863;55.766;37.672;2022-07-29T08:45:49;99994.63;;;39.12;18.20
61906;BME280;47863;55.766;37.672;2022-07-29T08:48:20;99988.19;;;40.82;16.43
61906;BME280;47863;55.766;37.672;2022-07-29T08:50:49;99995.25;;;42.07;15.40
61906;BME280;47863;55.766;37.672;2022-07-29T08:53:17;100008.16;;;41.25;15.00
61906;BME280;47863;55.766;37.672;2022-07-29T08:55:47;100002.63;;;40.80;16.29
61906;BME280;47863;55.766;37.672;2022-07-29T08:58:14;100004.09;;;41.22;15.75
61906;BME280;47863;55.766;37.672;2022-07-29T09:00:45;100003.78;;;41.94;15.63
61906;BME280;47863;55.766;37.672;2022-07-29T09:03:18;99991.84;;;42.56;15.95
61906;BME280;47863;55.766;37.672;2022-07-29T09:05:47;100002.50;;;42.66;14.47
61906;BME280;47863;55.766;37.672;2022-07-29T09:08:13;100012.81;;;42.58;15.21
61906;BME280;47863;55.766;37.672;2022-07-29T09:10:39;100013.31;;;42.64;14.21
61906;BME280;47863;55.766;37.672;2022-07-29T09:13:05;100007.03;;;41.77;14.80
61906;BME280;47863;55.766;37.672;2022-07-29T09:15:31;99993.47;;;40.27;15.14
61906;BME280;47863;55.766;37.672;2022-07-29T09:17:56;100002.34;;;39.02;17.52
61906;BME280;47863;55.766;37.672;2022-07-29T09:20:23;99996.97;;;39.59;17.31
61906;BME280;47863;55.766;37.672;2022-07-29T09:22:50;100002.31;;;40.41;17.59
61906;BME280;47863;55.766;37.672;2022-07-29T09:28:09;99996.81;;;41.88;15.26
61906;BME280;47863;55.766;37.672;2022-07-29T09:30:52;100003.31;;;40.21;16.74
61906;BME280;47863;55.766;37.672;2022-07-29T09:33:18;99999.38;;;38.32;17.96
61906;BME280;47863;55.766;37.672;2022-07-29T09:35:44;100005.97;;;37.64;18.95
61906;BME280;47863;55.766;37.672;2022-07-29T09:38:13;99997.31;;;37.48;18.55
61906;BME280;47863;55.766;37.672;2022-07-29T09:40:39;100003.31;;;36.12;19.85
61906;BME280;47863;55.766;37.672;2022-07-29T09:43:12;100007.50;;;34.95;21.26
61906;BME280;47863;55.766;37.672;2022-07-29T09:45:38;100011.81;;;33.97;21.82
61906;BME280;47863;55.766;37.672;2022-07-29T09:48:24;100012.88;;;33.46;22.19
61906;BME280;47863;55.766;37.672;2022-07-29T09:50:50;100005.16;;;32.30;24.58
61906;BME280;47863;55.766;37.672;2022-07-29T09:53:36;99993.28;;;31.43;25.08
61906;BME280;47863;55.766;37.672;2022-07-29T09:56:03;99989.22;;;30.48;27.42
61906;BME280;47863;55.766;37.672;2022-07-29T09:58:28;100013.03;;;30.44;26.98
61906;BME280;47863;55.766;37.672;2022-07-29T10:00:55;100011.44;;;30.33;26.59
61906;BME280;47863;55.766;37.672;2022-07-29T10:03:21;100022.16;;;29.95;26.46
61906;BME280;47863;55.766;37.672;2022-07-29T10:06:05;100008.00;;;29.46;26.83
61906;BME280;47863;55.766;37.672;2022-07-29T10:08:31;100009.22;;;28.89;28.12
61906;BME280;47863;55.766;37.672;2022-07-29T10:11:15;99996.81;;;28.61;28.28
61906;BME280;47863;55.766;37.672;2022-07-29T10:13:44;100008.03;;;28.13;29.57
61906;BME280;47863;55.766;37.672;2022-07-29T10:16:10;99995.91;;;28.09;31.89
61906;BME280;47863;55.766;37.672;2022-07-29T10:18:41;99997.31;;;28.37;29.79
61906;BME280;47863;55.766;37.672;2022-07-29T10:21:07;100004.50;;;28.33;30.82
61906;BME280;47863;55.766;37.672;2022-07-29T10:23:33;100003.41;;;28.24;31.36
61906;BME280;47863;55.766;37.672;2022-07-29T10:25:59;100005.28;;;29.11;30.38
61906;BME280;47863;55.766;37.672;2022-07-29T10:28:25;99993.97;;;30.42;27.73
61906;BME280;47863;55.766;37.672;2022-07-29T10:30:52;99984.69;;;31.21;26.78
61906;BME280;47863;55.766;37.672;2022-07-29T10:33:31;100003.91;;;31.60;27.25
61906;BME280;47863;55.766;37.672;2022-07-29T10:44:21;100004.09;;;31.16;25.90
61906;BME280;47863;55.766;37.672;2022-07-29T10:46:49;99998.00;;;32.62;25.27
61906;BME280;47863;55.766;37.672;2022-07-29T10:49:25;100002.53;;;34.02;23.89
61906;BME280;47863;55.766;37.672;2022-07-29T10:54:45;99996.13;;;35.45;22.79
61906;BME280;47863;55.766;37.672;2022-07-29T10:59:39;99998.28;;;34.04;23.14
61906;BME280;47863;55.766;37.672;2022-07-29T11:07:24;100003.06;;;32.22;25.26
61906;BME280;47863;55.766;37.672;2022-07-29T11:15:07;99994.97;;;32.77;25.36
61906;BME280;47863;55.766;37.672;2022-07-29T11:20:50;99989.66;;;35.76;22.83
61906;BME280;47863;55.766;37.672;2022-07-29T11:23:32;99991.41;;;37.41;21.41
61906;BME280;47863;55.766;37.672;2022-07-29T11:28:42;99983.78;;;39.35;18.15
61906;BME280;47863;55.766;37.672;2022-07-29T11:32:07;99992.41;;;39.30;17.54
61906;BME280;47863;55.766;37.672;2022-07-29T11:39:28;99996.56;;;40.66;16.09
61906;BME280;47863;55.766;37.672;2022-07-29T11:45:01;100011.22;;;39.41;17.07
61906;BME280;47863;55.766;37.672;2022-07-29T11:47:32;100017.31;;;37.59;19.75
61906;BME280;47863;55.766;37.672;2022-07-29T11:49:59;100011.53;;;36.00;19.96
61906;BME280;47863;55.766;37.672;2022-07-29T11:52:40;100019.31;;;34.69;21.27
61906;BME280;47863;55.766;37.672;2022-07-29T11:55:10;100009.25;;;33.17;23.07
61906;BME280;47863;55.766;37.672;2022-07-29T11:57:38;100002.78;;;32.05;25.62
61906;BME280;47863;55.766;37.672;2022-07-29T12:00:10;100004.09;;;31.16;26.69
61906;BME280;47863;55.766;37.672;2022-07-29T12:02:42;100003.50;;;30.60;26.86
61906;BME280;47863;55.766;37.672;2022-07-29T12:05:09;99995.47;;;30.24;28.20
61906;BME280;47863;55.766;37.672;2022-07-29T12:07:39;99996.94;;;31.15;27.40
61906;BME280;47863;55.766;37.672;2022-07-29T12:10:07;100002.66;;;32.67;25.66
61906;BME280;47863;55.766;37.672;2022-07-29T12:12:34;99990.94;;;33.86;24.00
61906;BME280;47863;55.766;37.672;2022-07-29T12:15:14;99994.09;;;34.97;22.76
61906;BME280;47863;55.766;37.672;2022-07-29T12:17:42;99990.88;;;35.04;22.43
61906;BME280;47863;55.766;37.672;2022-07-29T12:20:08;99981.81;;;34.67;23.22
61906;BME280;47863;55.766;37.672;2022-07-29T12:22:37;99996.38;;;34.05;23.53
61906;BME280;47863;55.766;37.672;2022-07-29T12:25:05;99995.19;;;33.14;23.58
61906;BME280;47863;55.766;37.672;2022-07-29T12:27:31;99988.31;;;32.27;25.18
61906;BME280;47863;55.766;37.672;2022-07-29T12:29:59;99998.75;;;31.54;26.58
61906;BME280;47863;55.766;37.672;2022-07-29T12:35:06;99994.84;;;30.38;27.68
61906;BME280;47863;55.766;37.672;2022-07-29T12:37:37;99995.47;;;30.19;29.50
61906;BME280;47863;55.766;37.672;2022-07-29T12:40:05;99987.72;;;30.95;28.34
61906;BME280;47863;55.766;37.672;2022-07-29T12:42:31;99980.78;;;31.89;25.46
61906;BME280;47863;55.766;37.672;2022-07-29T12:44:57;99991.25;;;32.16;25.46
61906;BME280;47863;55.766;37.672;2022-07-29T12:47:23;99983.56;;;31.89;25.76
61906;BME280;47863;55.766;37.672;2022-07-29T12:49:49;99992.72;;;31.47;26.36
61906;BME280;47863;55.766;37.672;2022-07-29T12:52:28;99985.97;;;31.05;26.32
61906;BME280;47863;55.766;37.672;2022-07-29T12:54:54;99988.06;;;30.54;27.06
61906;BME280;47863;55.766;37.672;2022-07-29T12:57:20;99987.03;;;30.45;26.05
61906;BME280;47863;55.766;37.672;2022-07-29T13:00:04;99979.34;;;30.42;26.84
61906;BME280;47863;55.766;37.672;2022-07-29T13:02:43;99992.66;;;30.30;26.84
61906;BME280;47863;55.766;37.672;2022-07-29T13:05:10;99991.88;;;29.79;27.56
61906;BME280;47863;55.766;37.672;2022-07-29T13:07:37;99965.84;;;29.25;28.38
61906;BME280;47863;55.766;37.672;2022-07-29T13:10:15;99973.59;;;29.08;29.22
61906;BME280;47863;55.766;37.672;2022-07-29T13:13:04;99982.19;;;28.91;29.27
61906;BME280;47863;55.766;37.672;2022-07-29T13:15:31;99982.78;;;28.67;30.14
61906;BME280;47863;55.766;37.672;2022-07-29T13:17:56;99984.09;;;28.49;32.69
61906;BME280;47863;55.766;37.672;2022-07-29T13:20:27;99973.38;;;28.33;31.04
61906;BME280;47863;55.766;37.672;2022-07-29T13:22:54;99987.13;;;28.33;29.30
61906;BME280;47863;55.766;37.672;2022-07-29T13:25:24;99987.28;;;27.80;32.21
61906;BME280;47863;55.766;37.672;2022-07-29T13:27:50;99981.06;;;27.37;32.61
61906;BME280;47863;55.766;37.672;2022-07-29T13:30:16;99985.59;;;27.16;33.84
61906;BME280;47863;55.766;37.672;2022-07-29T13:32:41;99988.84;;;27.07;33.46
61906;BME280;47863;55.766;37.672;2022-07-29T13:35:08;99973.75;;;27.15;34.56
61906;BME280;47863;55.766;37.672;2022-07-29T13:37:34;99977.38;;;27.21;33.03
61906;BME280;47863;55.766;37.672;2022-07-29T13:40:04;99976.25;;;27.17;32.95
61906;BME280;47863;55.766;37.672;2022-07-29T13:42:31;99978.94;;;27.06;31.63
61906;BME280;47863;55.766;37.672;2022-07-29T13:44:57;99972.91;;;26.67;31.84
61906;BME280;47863;55.766;37.672;2022-07-29T13:47:23;99974.84;;;26.39;32.93